createdAt,value
2023-03-05T00:00:31.874Z,36.80
2023-03-05T00:01:34.868Z,36.70
2023-03-05T00:02:37.194Z,36.90
2023-03-05T00:03:39.627Z,36.90
2023-03-05T00:04:41.902Z,36.80
2023-03-05T00:05:44.195Z,36.80
2023-03-05T00:06:47.131Z,36.90
2023-03-05T00:07:49.459Z,36.90
2023-03-05T00:08:53.262Z,36.80
2023-03-05T00:09:55.768Z,36.80
2023-03-05T00:11:00.168Z,36.70
2023-03-05T00:12:02.481Z,36.50
2023-03-05T00:13:04.796Z,36.90
2023-03-05T00:14:07.209Z,36.70
2023-03-05T00:15:09.898Z,36.70
2023-03-05T00:16:16.025Z,36.70
2023-03-05T00:17:18.530Z,36.70
2023-03-05T00:18:21.488Z,36.60
2023-03-05T00:19:23.850Z,36.80
2023-03-05T00:20:26.605Z,36.70
2023-03-05T00:21:28.907Z,36.70
2023-03-05T00:22:31.219Z,36.40
2023-03-05T00:23:33.494Z,36.30
2023-03-05T00:24:35.949Z,36.30
2023-03-05T00:25:39.162Z,36.70
2023-03-05T00:26:41.883Z,36.40
2023-03-05T00:27:44.471Z,34.90
2023-03-05T00:28:51.718Z,34.10
2023-03-05T00:29:54.046Z,34.90
2023-03-05T00:31:00.926Z,35.40
2023-03-05T00:32:03.553Z,35.90
2023-03-05T00:33:06.018Z,35.70
2023-03-05T00:34:11.964Z,35.70
2023-03-05T00:35:14.250Z,35.90
2023-03-05T00:36:16.666Z,35.90
2023-03-05T00:37:19.028Z,36.40
2023-03-05T00:38:22.070Z,36.00
2023-03-05T00:39:24.889Z,35.90
2023-03-05T00:40:27.301Z,36.10
2023-03-05T00:41:29.658Z,36.10
2023-03-05T00:42:33.537Z,36.00
2023-03-05T00:43:36.052Z,36.00
2023-03-05T00:44:38.345Z,36.00
2023-03-05T00:45:40.742Z,35.90
2023-03-05T00:46:43.102Z,36.00
2023-03-05T00:47:45.509Z,35.90
2023-03-05T00:48:47.866Z,35.30
2023-03-05T00:49:50.179Z,34.70
2023-03-05T00:50:52.950Z,34.30
2023-03-05T00:51:55.266Z,34.60
2023-03-05T00:52:57.647Z,35.70
2023-03-05T00:54:00.040Z,36.10
2023-03-05T00:55:02.378Z,36.40
2023-03-05T00:56:05.071Z,36.50
2023-03-05T00:57:07.408Z,36.60
2023-03-05T00:58:10.130Z,36.40
2023-03-05T00:59:12.433Z,36.50
2023-03-05T01:00:16.004Z,36.50
2023-03-05T01:01:18.345Z,36.50
2023-03-05T01:02:21.134Z,37.00
2023-03-05T01:03:23.708Z,36.20
2023-03-05T01:04:26.085Z,36.10
2023-03-05T01:05:28.463Z,36.20
2023-03-05T01:06:30.970Z,36.00
2023-03-05T01:07:33.824Z,36.00
2023-03-05T01:08:38.073Z,36.00
2023-03-05T01:09:40.610Z,36.00
2023-03-05T01:10:42.968Z,35.90
2023-03-05T01:11:45.610Z,35.90
2023-03-05T01:12:47.893Z,35.90
2023-03-05T01:13:50.286Z,35.90
2023-03-05T01:14:52.564Z,35.90
2023-03-05T01:15:55.014Z,35.90
2023-03-05T01:16:57.325Z,36.00
2023-03-05T01:17:59.961Z,36.00
2023-03-05T01:19:02.595Z,36.00
2023-03-05T01:20:05.767Z,36.00
2023-03-05T01:21:08.350Z,36.00
2023-03-05T01:22:10.766Z,36.00
2023-03-05T01:23:13.236Z,36.00
2023-03-05T01:24:15.838Z,36.10
2023-03-05T01:25:18.435Z,36.10
2023-03-05T01:26:20.973Z,36.10
2023-03-05T01:27:23.471Z,35.90
2023-03-05T01:28:26.332Z,35.90
2023-03-05T01:29:28.856Z,36.10
2023-03-05T01:30:31.375Z,36.20
2023-03-05T01:31:33.821Z,36.10
2023-03-05T01:32:36.750Z,36.00
2023-03-05T01:33:39.256Z,36.00
2023-03-05T01:34:42.022Z,36.10
2023-03-05T01:35:47.747Z,36.10
2023-03-05T01:36:50.571Z,36.00
2023-03-05T01:37:53.842Z,35.90
2023-03-05T01:38:56.160Z,36.10
2023-03-05T01:39:58.643Z,36.10
2023-03-05T01:41:01.047Z,36.00
2023-03-05T01:42:04.424Z,36.00
2023-03-05T01:43:24.176Z,36.10
2023-03-05T01:44:28.762Z,36.10
2023-03-05T01:45:34.496Z,36.20
2023-03-05T01:46:38.224Z,36.20
2023-03-05T01:47:40.800Z,36.10
2023-03-05T01:48:45.977Z,36.10
2023-03-05T01:49:48.367Z,36.00
2023-03-05T01:50:51.060Z,36.10
2023-03-05T01:52:11.741Z,36.00
2023-03-05T01:53:14.047Z,36.00
2023-03-05T01:54:19.330Z,36.10
2023-03-05T01:55:24.562Z,36.00
2023-03-05T01:56:28.679Z,36.00
2023-03-05T01:57:38.240Z,35.90
2023-03-05T01:58:41.412Z,36.00
2023-03-05T01:59:47.432Z,35.90
2023-03-05T02:00:52.505Z,36.00
2023-03-05T02:01:56.982Z,35.90
2023-03-05T02:03:03.591Z,35.80
2023-03-05T02:04:08.203Z,35.90
2023-03-05T02:05:17.758Z,35.90
2023-03-05T02:06:21.091Z,36.00
2023-03-05T02:07:24.947Z,35.90
2023-03-05T02:08:27.288Z,35.90
2023-03-05T02:09:29.695Z,35.70
2023-03-05T02:10:36.899Z,35.70
2023-03-05T02:11:40.322Z,35.80
2023-03-05T02:12:42.890Z,35.80
2023-03-05T02:13:45.243Z,35.70
2023-03-05T02:14:51.525Z,35.60
2023-03-05T02:15:57.653Z,35.70
2023-03-05T02:17:00.976Z,35.80
2023-03-05T02:18:03.783Z,35.80
2023-03-05T02:19:08.595Z,36.00
2023-03-05T02:20:30.391Z,35.90
2023-03-05T02:21:45.276Z,36.00
2023-03-05T02:22:47.673Z,36.10
2023-03-05T02:23:50.106Z,35.90
2023-03-05T02:24:52.818Z,36.00
2023-03-05T02:25:55.589Z,35.90
2023-03-05T02:26:58.100Z,36.10
2023-03-05T02:28:18.029Z,36.00
2023-03-05T02:29:20.929Z,36.00
2023-03-05T02:30:23.367Z,35.90
2023-03-05T02:31:26.586Z,35.80
2023-03-05T02:32:29.059Z,35.80
2023-03-05T02:33:31.892Z,35.70
2023-03-05T02:34:34.170Z,35.70
2023-03-05T02:35:37.099Z,35.70
2023-03-05T02:36:39.604Z,35.70
2023-03-05T02:37:42.917Z,36.40
2023-03-05T02:38:46.342Z,35.80
2023-03-05T02:39:49.159Z,35.70
2023-03-05T02:40:51.481Z,35.70
2023-03-05T02:41:54.572Z,35.80
2023-03-05T02:42:57.128Z,35.80
2023-03-05T02:43:59.810Z,35.70
2023-03-05T02:45:03.127Z,35.60
2023-03-05T02:46:06.657Z,35.80
2023-03-05T02:47:09.600Z,35.80
2023-03-05T02:48:15.146Z,35.70
2023-03-05T02:49:18.684Z,35.90
2023-03-05T02:50:23.479Z,35.70
2023-03-05T02:51:26.589Z,35.80
2023-03-05T02:52:30.773Z,35.80
2023-03-05T02:53:33.580Z,35.60
2023-03-05T02:54:35.968Z,35.60
2023-03-05T02:55:40.594Z,35.80
2023-03-05T02:56:43.495Z,35.90
2023-03-05T02:57:46.013Z,35.80
2023-03-05T02:58:48.479Z,35.80
2023-03-05T02:59:51.465Z,35.70
2023-03-05T03:00:53.815Z,35.50
2023-03-05T03:01:56.250Z,35.60
2023-03-05T03:02:58.752Z,35.90
2023-03-05T03:04:01.191Z,36.10
2023-03-05T03:05:03.657Z,36.90
2023-03-05T03:06:06.486Z,34.90
2023-03-05T03:07:08.796Z,34.30
2023-03-05T03:08:11.417Z,34.90
2023-03-05T03:09:13.813Z,35.50
2023-03-05T03:10:16.329Z,35.80
2023-03-05T03:11:18.772Z,35.70
2023-03-05T03:12:21.487Z,35.70
2023-03-05T03:13:25.228Z,35.70
2023-03-05T03:14:27.604Z,35.90
2023-03-05T03:15:30.045Z,36.00
2023-03-05T03:16:33.993Z,36.00
2023-03-05T03:17:37.479Z,36.00
2023-03-05T03:18:40.218Z,36.00
2023-03-05T03:19:42.921Z,36.10
2023-03-05T03:20:45.227Z,36.20
2023-03-05T03:21:49.887Z,36.30
2023-03-05T03:22:52.217Z,36.60
2023-03-05T03:23:54.606Z,36.40
2023-03-05T03:24:57.207Z,36.50
2023-03-05T03:25:59.977Z,36.40
2023-03-05T03:27:02.550Z,36.40
2023-03-05T03:28:04.945Z,36.40
2023-03-05T03:29:07.293Z,35.80
2023-03-05T03:30:10.370Z,35.10
2023-03-05T03:31:12.819Z,34.90
2023-03-05T03:32:15.231Z,36.10
2023-03-05T03:33:18.185Z,36.80
2023-03-05T03:34:21.114Z,37.70
2023-03-05T03:35:23.633Z,37.90
2023-03-05T03:36:26.070Z,38.00
2023-03-05T03:37:29.839Z,37.90
2023-03-05T03:38:32.156Z,37.90
2023-03-05T03:39:34.933Z,37.70
2023-03-05T03:40:37.324Z,37.70
2023-03-05T03:41:45.199Z,37.90
2023-03-05T03:42:47.642Z,38.40
2023-03-05T03:43:49.977Z,38.90
2023-03-05T03:44:52.414Z,39.10
2023-03-05T03:45:54.879Z,39.20
2023-03-05T03:46:57.480Z,39.10
2023-03-05T03:47:59.816Z,39.20
2023-03-05T03:49:02.336Z,39.20
2023-03-05T03:50:05.219Z,39.30
2023-03-05T03:51:08.202Z,39.30
2023-03-05T03:52:10.600Z,39.40
2023-03-05T03:53:14.285Z,39.40
2023-03-05T03:54:18.067Z,39.40
2023-03-05T03:55:20.669Z,39.40
2023-03-05T03:56:23.229Z,39.50
2023-03-05T03:57:25.652Z,39.50
2023-03-05T03:58:28.002Z,39.50
2023-03-05T03:59:30.446Z,39.60
2023-03-05T04:00:32.725Z,39.60
2023-03-05T04:01:35.196Z,39.60
2023-03-05T04:02:37.877Z,39.70
2023-03-05T04:03:40.453Z,39.70
2023-03-05T04:04:42.831Z,39.80
2023-03-05T04:05:45.185Z,39.80
2023-03-05T04:06:47.523Z,39.80
2023-03-05T04:07:49.913Z,39.90
2023-03-05T04:08:52.346Z,39.90
2023-03-05T04:09:54.680Z,39.90
2023-03-05T04:10:57.252Z,40.00
2023-03-05T04:11:59.683Z,40.00
2023-03-05T04:13:02.037Z,40.10
2023-03-05T04:14:06.009Z,40.20
2023-03-05T04:15:08.852Z,35.70
2023-03-05T04:16:11.428Z,35.00
2023-03-05T04:17:15.205Z,34.90
2023-03-05T04:18:17.483Z,35.10
2023-03-05T04:19:20.030Z,36.80
2023-03-05T04:20:22.582Z,37.30
2023-03-05T04:21:24.957Z,38.00
2023-03-05T04:22:27.394Z,38.50
2023-03-05T04:23:29.721Z,38.60
2023-03-05T04:24:32.190Z,38.70
2023-03-05T04:25:34.624Z,38.50
2023-03-05T04:26:37.066Z,38.60
2023-03-05T04:27:40.289Z,38.50
2023-03-05T04:28:42.844Z,38.40
2023-03-05T04:29:45.268Z,38.40
2023-03-05T04:30:47.903Z,38.60
2023-03-05T04:31:50.240Z,38.60
2023-03-05T04:32:55.130Z,38.50
2023-03-05T04:33:57.423Z,38.80
2023-03-05T04:34:59.735Z,38.60
2023-03-05T04:36:02.380Z,38.90
2023-03-05T04:37:04.781Z,38.70
2023-03-05T04:38:07.580Z,38.80
2023-03-05T04:39:09.943Z,39.10
2023-03-05T04:40:12.680Z,39.10
2023-03-05T04:41:15.000Z,39.10
2023-03-05T04:42:19.178Z,39.30
2023-03-05T04:43:22.236Z,39.30
2023-03-05T04:44:26.015Z,40.00
2023-03-05T04:45:28.451Z,39.50
2023-03-05T04:46:30.945Z,39.90
2023-03-05T04:47:34.318Z,40.40
2023-03-05T04:48:36.602Z,35.50
2023-03-05T04:49:38.993Z,34.10
2023-03-05T04:50:41.582Z,33.20
2023-03-05T04:51:43.939Z,33.70
2023-03-05T04:52:46.882Z,33.80
2023-03-05T04:53:49.540Z,35.00
2023-03-05T04:54:51.875Z,36.30
2023-03-05T04:55:55.200Z,38.00
2023-03-05T04:56:57.606Z,38.60
2023-03-05T04:57:59.884Z,38.60
2023-03-05T04:59:02.282Z,38.90
2023-03-05T05:00:14.222Z,39.10
2023-03-05T05:01:16.851Z,39.30
2023-03-05T05:02:19.250Z,39.30
2023-03-05T05:03:21.744Z,39.40
2023-03-05T05:04:24.094Z,39.20
2023-03-05T05:05:27.900Z,39.20
2023-03-05T05:06:30.314Z,39.20
2023-03-05T05:07:32.813Z,39.40
2023-03-05T05:08:36.900Z,39.40
2023-03-05T05:09:41.174Z,39.40
2023-03-05T05:10:43.450Z,39.50
2023-03-05T05:11:45.838Z,40.00
2023-03-05T05:12:48.260Z,34.70
2023-03-05T05:13:50.588Z,33.30
2023-03-05T05:14:52.912Z,32.90
2023-03-05T05:15:55.932Z,34.30
2023-03-05T05:16:58.617Z,35.40
2023-03-05T05:18:00.919Z,37.60
2023-03-05T05:19:03.754Z,38.10
2023-03-05T05:20:07.833Z,38.10
2023-03-05T05:21:12.557Z,39.30
2023-03-05T05:22:15.027Z,39.40
2023-03-05T05:23:17.928Z,39.40
2023-03-05T05:24:20.239Z,39.30
2023-03-05T05:25:22.574Z,39.40
2023-03-05T05:26:25.036Z,39.50
2023-03-05T05:27:27.739Z,39.40
2023-03-05T05:28:30.637Z,39.50
2023-03-05T05:29:32.976Z,39.50
2023-03-05T05:30:35.380Z,39.40
2023-03-05T05:31:37.866Z,39.60
2023-03-05T05:32:40.320Z,39.60
2023-03-05T05:33:43.210Z,39.60
2023-03-05T05:34:45.804Z,39.90
2023-03-05T05:35:48.558Z,39.60
2023-03-05T05:36:51.569Z,39.40
2023-03-05T05:37:53.928Z,39.70
2023-03-05T05:38:56.536Z,39.70
2023-03-05T05:39:58.946Z,39.60
2023-03-05T05:41:07.321Z,35.60
2023-03-05T05:42:09.584Z,34.60
2023-03-05T05:43:11.971Z,34.70
2023-03-05T05:44:14.532Z,36.60
2023-03-05T05:45:16.950Z,37.60
2023-03-05T05:46:20.596Z,38.10
2023-03-05T05:47:23.212Z,38.40
2023-03-05T05:48:25.506Z,38.90
2023-03-05T05:49:27.939Z,39.60
2023-03-05T05:50:30.313Z,39.80
2023-03-05T05:51:33.436Z,40.00
2023-03-05T05:52:35.704Z,40.00
2023-03-05T05:53:38.204Z,40.10
2023-03-05T05:54:40.582Z,40.20
2023-03-05T05:55:43.108Z,40.10
2023-03-05T05:56:45.809Z,40.40
2023-03-05T05:57:48.026Z,40.40
2023-03-05T05:58:50.450Z,40.40
2023-03-05T05:59:53.203Z,40.40
2023-03-05T06:00:55.832Z,40.60
2023-03-05T06:01:58.162Z,40.50
2023-03-05T06:03:00.767Z,40.60
2023-03-05T06:04:05.791Z,40.60
2023-03-05T06:05:10.832Z,40.70
2023-03-05T06:06:16.417Z,40.70
2023-03-05T06:07:18.700Z,40.70
2023-03-05T06:08:21.053Z,40.60
2023-03-05T06:09:23.408Z,40.70
2023-03-05T06:10:25.865Z,40.70
2023-03-05T06:11:28.508Z,40.70
2023-03-05T06:12:30.928Z,40.70
2023-03-05T06:13:33.990Z,40.70
2023-03-05T06:14:36.329Z,40.80
2023-03-05T06:15:38.697Z,40.70
2023-03-05T06:16:41.185Z,40.70
2023-03-05T06:17:43.690Z,40.70
2023-03-05T06:18:46.188Z,40.70
2023-03-05T06:19:48.570Z,40.70
2023-03-05T06:20:58.939Z,40.80
2023-03-05T06:22:01.514Z,40.80
2023-03-05T06:23:03.871Z,39.60
2023-03-05T06:24:06.960Z,35.80
2023-03-05T06:25:10.269Z,35.00
2023-03-05T06:26:15.262Z,34.90
2023-03-05T06:27:17.602Z,35.00
2023-03-05T06:28:20.640Z,35.60
2023-03-05T06:29:23.033Z,37.50
2023-03-05T06:30:25.378Z,38.50
2023-03-05T06:31:29.302Z,39.40
2023-03-05T06:32:32.282Z,40.00
2023-03-05T06:33:34.997Z,39.90
2023-03-05T06:34:37.431Z,40.30
2023-03-05T06:35:40.343Z,40.30
2023-03-05T06:36:43.625Z,40.40
2023-03-05T06:37:46.007Z,40.50
2023-03-05T06:38:49.328Z,40.40
2023-03-05T06:39:51.852Z,40.60
2023-03-05T06:40:54.154Z,40.70
2023-03-05T06:41:56.446Z,40.70
2023-03-05T06:42:59.086Z,40.70
2023-03-05T06:44:04.932Z,40.70
2023-03-05T06:45:08.311Z,40.70
2023-03-05T06:46:17.869Z,41.20
2023-03-05T06:47:20.331Z,40.70
2023-03-05T06:48:22.599Z,40.70
2023-03-05T06:49:25.008Z,40.70
2023-03-05T06:50:27.502Z,40.70
2023-03-05T06:51:32.975Z,40.80
2023-03-05T06:52:35.485Z,40.80
2023-03-05T06:53:37.776Z,40.70
2023-03-05T06:54:40.383Z,40.80
2023-03-05T06:55:42.709Z,40.70
2023-03-05T06:56:46.548Z,40.80
2023-03-05T06:57:48.888Z,40.70
2023-03-05T06:58:52.425Z,40.80
2023-03-05T06:59:54.890Z,40.80
2023-03-05T07:00:57.300Z,40.80
2023-03-05T07:01:59.690Z,40.70
2023-03-05T07:03:02.382Z,35.00
2023-03-05T07:04:05.943Z,33.10
2023-03-05T07:05:08.971Z,32.80
2023-03-05T07:06:16.099Z,33.40
2023-03-05T07:07:18.481Z,33.20
2023-03-05T07:08:20.805Z,34.40
2023-03-05T07:09:23.303Z,35.80
2023-03-05T07:10:25.617Z,37.20
2023-03-05T07:11:28.250Z,37.70
2023-03-05T07:12:30.658Z,38.00
2023-03-05T07:13:33.191Z,38.20
2023-03-05T07:14:35.541Z,38.30
2023-03-05T07:15:40.144Z,38.60
2023-03-05T07:16:42.568Z,38.80
2023-03-05T07:17:44.933Z,38.90
2023-03-05T07:18:47.481Z,39.00
2023-03-05T07:19:49.886Z,39.10
2023-03-05T07:20:52.221Z,39.20
2023-03-05T07:21:54.687Z,39.20
2023-03-05T07:22:57.281Z,39.30
2023-03-05T07:24:01.401Z,39.80
2023-03-05T07:25:04.567Z,39.50
2023-03-05T07:26:07.300Z,39.50
2023-03-05T07:27:09.653Z,39.60
2023-03-05T07:28:11.979Z,39.50
2023-03-05T07:29:14.260Z,39.70
2023-03-05T07:30:16.794Z,39.70
2023-03-05T07:31:21.989Z,40.30
2023-03-05T07:32:24.433Z,40.20
2023-03-05T07:33:27.630Z,39.80
2023-03-05T07:34:29.978Z,39.60
2023-03-05T07:35:32.254Z,40.30
2023-03-05T07:36:35.030Z,39.80
2023-03-05T07:37:37.802Z,39.80
2023-03-05T07:38:40.821Z,39.70
2023-03-05T07:39:43.377Z,39.70
2023-03-05T07:40:46.872Z,39.70
2023-03-05T07:41:51.398Z,40.30
2023-03-05T07:42:54.482Z,39.90
2023-03-05T07:44:04.808Z,39.70
2023-03-05T07:45:07.949Z,39.70
2023-03-05T07:46:12.492Z,39.70
2023-03-05T07:47:14.947Z,39.70
2023-03-05T07:48:20.789Z,39.80
2023-03-05T07:49:23.745Z,39.80
2023-03-05T07:50:26.207Z,39.90
2023-03-05T07:51:29.006Z,39.90
2023-03-05T07:52:31.363Z,39.90
2023-03-05T07:53:33.709Z,39.90
2023-03-05T07:54:38.920Z,39.90
2023-03-05T07:55:47.225Z,39.90
2023-03-05T07:56:49.588Z,40.00
2023-03-05T07:57:53.061Z,39.90
2023-03-05T07:58:55.469Z,40.00
2023-03-05T07:59:57.868Z,39.90
2023-03-05T08:01:00.305Z,39.90
2023-03-05T08:02:02.842Z,40.00
2023-03-05T08:03:05.189Z,40.00
2023-03-05T08:04:10.621Z,39.90
2023-03-05T08:05:13.955Z,40.00
2023-03-05T08:06:16.480Z,40.00
2023-03-05T08:07:18.892Z,39.90
2023-03-05T08:08:21.321Z,39.90
2023-03-05T08:09:23.921Z,40.00
2023-03-05T08:10:26.328Z,40.00
2023-03-05T08:11:28.849Z,39.90
2023-03-05T08:12:31.327Z,39.90
2023-03-05T08:13:33.718Z,40.30
2023-03-05T08:14:36.312Z,39.50
2023-03-05T08:15:38.770Z,36.60
2023-03-05T08:16:41.210Z,36.70
2023-03-05T08:17:43.554Z,36.70
2023-03-05T08:18:46.400Z,36.70
2023-03-05T08:19:48.726Z,36.80
2023-03-05T08:20:51.090Z,36.90
2023-03-05T08:21:55.556Z,36.90
2023-03-05T08:22:58.020Z,36.90
2023-03-05T08:24:03.113Z,36.80
2023-03-05T08:25:06.905Z,37.00
2023-03-05T08:26:18.462Z,38.50
2023-03-05T08:27:20.803Z,38.60
2023-03-05T08:28:23.630Z,38.60
2023-03-05T08:29:26.974Z,38.60
2023-03-05T08:30:29.835Z,39.50
2023-03-05T08:31:32.899Z,38.10
2023-03-05T08:32:35.525Z,39.00
2023-03-05T08:33:38.434Z,39.00
2023-03-05T08:34:40.835Z,39.20
2023-03-05T08:35:43.580Z,39.30
2023-03-05T08:36:47.128Z,39.20
2023-03-05T08:37:49.504Z,39.40
2023-03-05T08:38:52.114Z,39.40
2023-03-05T08:39:56.201Z,39.40
2023-03-05T08:40:58.766Z,39.60
2023-03-05T08:42:01.319Z,39.50
2023-03-05T08:43:05.783Z,39.60
2023-03-05T08:44:08.478Z,39.60
2023-03-05T08:45:11.395Z,39.80
2023-03-05T08:46:15.336Z,39.70
2023-03-05T08:47:18.622Z,39.70
2023-03-05T08:48:21.002Z,39.80
2023-03-05T08:49:23.379Z,39.90
2023-03-05T08:50:25.989Z,39.90
2023-03-05T08:51:28.566Z,40.00
2023-03-05T08:52:30.968Z,40.00
2023-03-05T08:53:33.676Z,40.10
2023-03-05T08:54:37.685Z,40.30
2023-03-05T08:55:40.084Z,40.30
2023-03-05T08:56:42.441Z,40.30
2023-03-05T08:57:44.911Z,40.30
2023-03-05T08:58:48.181Z,40.30
2023-03-05T08:59:50.552Z,40.40
2023-03-05T09:00:52.896Z,40.50
2023-03-05T09:01:55.296Z,40.60
2023-03-05T09:02:57.711Z,40.30
2023-03-05T09:04:01.264Z,40.70
2023-03-05T09:05:04.300Z,40.90
2023-03-05T09:06:09.689Z,40.90
2023-03-05T09:07:12.937Z,41.00
2023-03-05T09:08:15.309Z,40.60
2023-03-05T09:09:20.634Z,40.80
2023-03-05T09:10:23.073Z,40.90
2023-03-05T09:11:25.497Z,41.00
2023-03-05T09:12:28.136Z,41.00
2023-03-05T09:13:30.633Z,40.40
2023-03-05T09:14:33.073Z,40.60
2023-03-05T09:15:35.476Z,40.90
2023-03-05T09:16:40.365Z,40.30
2023-03-05T09:17:43.061Z,40.00
2023-03-05T09:18:45.518Z,39.90
2023-03-05T09:19:48.034Z,39.80
2023-03-05T09:20:50.641Z,39.80
2023-03-05T09:21:55.363Z,39.70
2023-03-05T09:22:58.998Z,39.60
2023-03-05T09:24:01.845Z,39.60
2023-03-05T09:25:04.559Z,39.50
2023-03-05T09:26:08.843Z,39.50
2023-03-05T09:27:11.344Z,39.60
2023-03-05T09:28:13.772Z,39.60
2023-03-05T09:29:16.324Z,39.80
2023-03-05T09:30:18.913Z,40.40
2023-03-05T09:31:21.444Z,40.20
2023-03-05T09:32:23.958Z,40.10
2023-03-05T09:33:26.291Z,40.20
2023-03-05T09:34:28.646Z,40.20
2023-03-05T09:35:35.964Z,40.30
2023-03-05T09:36:39.642Z,40.50
2023-03-05T09:37:42.159Z,40.50
2023-03-05T09:38:44.639Z,40.50
2023-03-05T09:39:47.275Z,40.60
2023-03-05T09:41:07.891Z,40.60
2023-03-05T09:42:28.477Z,40.70
2023-03-05T09:43:35.274Z,41.10
2023-03-05T09:44:52.413Z,40.60
2023-03-05T09:46:23.947Z,40.60
2023-03-05T09:47:59.713Z,41.50
2023-03-05T09:49:14.720Z,41.30
2023-03-05T09:50:25.392Z,41.70
2023-03-05T09:51:31.638Z,42.00
2023-03-05T09:52:44.920Z,41.80
2023-03-05T09:54:02.932Z,41.80
2023-03-05T09:55:14.641Z,41.40
2023-03-05T09:56:22.803Z,41.20
2023-03-05T09:57:36.329Z,38.20
2023-03-05T09:58:48.646Z,37.60
2023-03-05T09:59:54.307Z,39.10
2023-03-05T10:01:01.826Z,40.20
2023-03-05T10:02:20.993Z,41.40
2023-03-05T10:03:31.894Z,41.90
2023-03-05T10:04:48.825Z,42.20
2023-03-05T10:05:59.533Z,41.60
2023-03-05T10:07:13.978Z,41.60
2023-03-05T10:08:21.057Z,42.10
2023-03-05T10:09:50.861Z,42.10
2023-03-05T10:10:54.214Z,41.90
2023-03-05T10:12:20.904Z,42.10
2023-03-05T10:13:35.230Z,41.80
2023-03-05T10:14:40.603Z,41.60
2023-03-05T10:15:55.144Z,41.70
2023-03-05T10:17:11.064Z,41.50
2023-03-05T10:18:36.984Z,41.80
2023-03-05T10:19:39.259Z,41.80
2023-03-05T10:21:00.023Z,41.70
2023-03-05T10:22:10.094Z,41.70
2023-03-05T10:23:24.539Z,41.50
2023-03-05T10:24:44.178Z,41.20
2023-03-05T10:26:18.329Z,41.20
2023-03-05T10:27:42.843Z,41.90
2023-03-05T10:29:08.593Z,40.40
2023-03-05T10:30:30.283Z,40.30
2023-03-05T10:31:48.662Z,40.50
2023-03-05T10:32:57.968Z,40.70
2023-03-05T10:34:21.352Z,40.50
2023-03-05T10:35:42.146Z,40.60
2023-03-05T10:37:11.272Z,40.80
2023-03-05T10:38:46.717Z,40.70
2023-03-05T10:40:00.067Z,40.90
2023-03-05T10:41:38.966Z,41.10
2023-03-05T10:43:23.912Z,40.90
2023-03-05T10:44:47.966Z,41.00
2023-03-05T10:45:53.273Z,41.00
2023-03-05T10:46:59.304Z,40.90
2023-03-05T10:48:13.722Z,41.00
2023-03-05T10:49:24.675Z,41.00
2023-03-05T10:50:31.654Z,41.00
2023-03-05T10:51:39.999Z,41.10
2023-03-05T10:52:46.961Z,41.10
2023-03-05T10:53:52.631Z,41.10
2023-03-05T10:54:55.301Z,41.10
2023-03-05T10:56:02.086Z,41.10
2023-03-05T10:57:19.375Z,41.10
2023-03-05T10:58:24.706Z,41.30
2023-03-05T10:59:28.168Z,41.40
2023-03-05T11:00:32.294Z,41.20
2023-03-05T11:01:36.948Z,41.30
2023-03-05T11:02:59.004Z,41.40
2023-03-05T11:04:25.769Z,41.30
2023-03-05T11:05:40.539Z,41.30
2023-03-05T11:06:48.312Z,41.30
2023-03-05T11:07:51.080Z,41.40
2023-03-05T11:08:53.525Z,41.40
2023-03-05T11:10:04.335Z,41.50
2023-03-05T11:11:09.509Z,41.30
2023-03-05T11:12:19.379Z,41.10
2023-03-05T11:13:27.412Z,39.70
2023-03-05T11:14:33.271Z,39.40
2023-03-05T11:15:35.778Z,39.20
2023-03-05T11:16:50.790Z,39.20
2023-03-05T11:18:24.950Z,39.50
2023-03-05T11:19:32.969Z,40.50
2023-03-05T11:20:36.297Z,40.40
2023-03-05T11:21:38.720Z,40.50
2023-03-05T11:22:41.444Z,40.50
2023-03-05T11:23:43.846Z,40.70
2023-03-05T11:25:19.043Z,40.70
2023-03-05T11:26:24.386Z,40.80
2023-03-05T11:27:35.093Z,40.90
2023-03-05T11:28:40.512Z,41.00
2023-03-05T11:29:49.264Z,41.00
2023-03-05T11:31:13.320Z,41.10
2023-03-05T11:32:24.315Z,41.10
2023-03-05T11:33:27.449Z,41.10
2023-03-05T11:34:35.193Z,41.10
2023-03-05T11:35:40.873Z,41.10
2023-03-05T11:37:06.160Z,41.10
2023-03-05T11:38:21.213Z,41.40
2023-03-05T11:39:25.655Z,40.20
2023-03-05T11:40:31.064Z,39.80
2023-03-05T11:41:33.336Z,39.80
2023-03-05T11:42:37.909Z,39.70
2023-03-05T11:43:43.697Z,39.40
2023-03-05T11:45:00.088Z,40.10
2023-03-05T11:46:04.923Z,40.40
2023-03-05T11:47:25.998Z,40.40
2023-03-05T11:48:39.642Z,40.50
2023-03-05T11:49:46.470Z,40.70
2023-03-05T11:51:24.627Z,40.70
2023-03-05T11:52:33.413Z,40.80
2023-03-05T11:53:37.185Z,40.90
2023-03-05T11:55:14.677Z,40.90
2023-03-05T11:56:27.948Z,41.00
2023-03-05T11:57:41.807Z,41.00
2023-03-05T11:59:05.225Z,41.00
2023-03-05T12:00:16.079Z,41.00
2023-03-05T12:01:24.428Z,41.10
2023-03-05T12:02:29.589Z,41.10
2023-03-05T12:03:35.301Z,41.30
2023-03-05T12:04:37.642Z,41.10
2023-03-05T12:05:47.954Z,41.20
2023-03-05T12:07:00.383Z,41.10
2023-03-05T12:08:03.221Z,41.10
2023-03-05T12:09:43.018Z,41.20
2023-03-05T12:10:45.503Z,41.30
2023-03-05T12:11:54.575Z,41.20
2023-03-05T12:13:06.045Z,41.10
2023-03-05T12:14:24.734Z,41.30
2023-03-05T12:15:38.744Z,41.20
2023-03-05T12:17:14.117Z,41.30
2023-03-05T12:18:36.975Z,41.30
2023-03-05T12:19:45.042Z,41.30
2023-03-05T12:21:21.018Z,41.50
2023-03-05T12:22:26.694Z,41.70
2023-03-05T12:23:29.410Z,41.40
2023-03-05T12:24:31.749Z,42.00
2023-03-05T12:25:46.370Z,41.80
2023-03-05T12:27:03.627Z,41.10
2023-03-05T12:28:15.054Z,40.60
2023-03-05T12:29:46.587Z,40.50
2023-03-05T12:30:48.744Z,40.40
2023-03-05T12:31:51.073Z,40.80
2023-03-05T12:32:54.021Z,40.90
2023-03-05T12:33:56.370Z,41.10
2023-03-05T12:35:05.741Z,41.10
2023-03-05T12:36:22.762Z,41.10
2023-03-05T12:37:25.070Z,41.30
2023-03-05T12:38:34.455Z,41.20
2023-03-05T12:39:49.626Z,41.30
2023-03-05T12:40:52.041Z,41.30
2023-03-05T12:41:56.572Z,41.10
2023-03-05T12:43:03.086Z,41.30
2023-03-05T12:44:05.516Z,41.30
2023-03-05T12:45:14.547Z,41.40
2023-03-05T12:46:29.078Z,41.40
2023-03-05T12:47:31.512Z,41.30
2023-03-05T12:48:41.979Z,41.40
2023-03-05T12:49:46.063Z,41.40
2023-03-05T12:50:48.940Z,41.40
2023-03-05T12:51:52.801Z,41.40
2023-03-05T12:53:12.652Z,41.40
2023-03-05T12:54:29.016Z,41.40
2023-03-05T12:55:40.708Z,41.40
2023-03-05T12:56:46.292Z,41.60
2023-03-05T12:57:57.877Z,41.40
2023-03-05T12:59:01.781Z,41.60
2023-03-05T13:00:11.939Z,42.80
2023-03-05T13:01:43.208Z,41.10
2023-03-05T13:02:46.541Z,40.70
2023-03-05T13:03:56.036Z,40.10
2023-03-05T13:05:08.360Z,41.00
2023-03-05T13:06:26.789Z,42.20
2023-03-05T13:07:29.398Z,42.10
2023-03-05T13:08:36.117Z,42.30
2023-03-05T13:09:38.557Z,42.90
2023-03-05T13:10:41.468Z,42.70
2023-03-05T13:11:48.616Z,42.70
2023-03-05T13:12:53.592Z,42.90
2023-03-05T13:13:56.820Z,43.00
2023-03-05T13:15:05.766Z,43.20
2023-03-05T13:16:19.182Z,43.30
2023-03-05T13:17:28.458Z,43.40
2023-03-05T13:18:32.865Z,43.30
2023-03-05T13:19:36.037Z,43.40
2023-03-05T13:20:40.925Z,43.50
2023-03-05T13:21:43.367Z,43.40
2023-03-05T13:22:45.801Z,43.40
2023-03-05T13:23:58.288Z,43.60
2023-03-05T13:25:12.107Z,43.60
2023-03-05T13:26:19.664Z,43.40
2023-03-05T13:27:32.960Z,43.20
2023-03-05T13:28:37.352Z,42.10
2023-03-05T13:29:51.549Z,42.60
2023-03-05T13:31:00.272Z,42.90
2023-03-05T13:32:19.411Z,43.80
2023-03-05T13:33:33.541Z,44.10
2023-03-05T13:34:47.303Z,44.30
2023-03-05T13:35:51.419Z,44.30
2023-03-05T13:37:15.118Z,44.90
2023-03-05T13:38:24.781Z,45.20
2023-03-05T13:39:35.309Z,45.30
2023-03-05T13:40:39.012Z,44.30
2023-03-05T13:41:41.297Z,44.00
2023-03-05T13:42:43.655Z,45.70
2023-03-05T13:43:52.548Z,46.60
2023-03-05T13:44:59.076Z,44.50
2023-03-05T13:46:01.561Z,49.80
2023-03-05T13:47:19.320Z,48.00
2023-03-05T13:48:22.111Z,45.70
2023-03-05T13:49:26.720Z,42.80
2023-03-05T13:50:32.820Z,36.00
2023-03-05T13:51:46.494Z,35.10
2023-03-05T13:52:48.896Z,35.00
2023-03-05T13:53:51.738Z,34.30
2023-03-05T13:54:54.164Z,34.50
2023-03-05T13:56:01.000Z,34.80
2023-03-05T13:57:08.314Z,35.60
2023-03-05T13:58:48.101Z,37.80
2023-03-05T13:59:53.853Z,39.30
2023-03-05T14:01:32.834Z,40.90
2023-03-05T14:02:35.321Z,41.40
2023-03-05T14:03:40.992Z,41.70
2023-03-05T14:04:46.247Z,42.50
2023-03-05T14:05:49.928Z,41.00